CFG2ML EDDH-EDDM
Flight info
| Callsign | CFG2ML |
|---|---|
| Flight time | N/A |
| Altitude | 35000 |
| Route | AMLUH2G AMLUH M852 DENIX DCT ZUCKA DCT SODRO/N0450F310 T703 LULAR/N0453F300 T105 LANDU LANDU2B |
| Aircraft | A320/M-SDE3FGHIRWY/LB1 |
Departure
| Time | 2026-04-24 22:09 |
|---|---|
| Airport | Hamburg Helmut Schmidt Airport (EDDH) |
Arrival
| Time | N/A |
|---|---|
| Airport | Munich Airport (EDDM) |
| Time | Latitude | Longitude | Altitude | Speed | Heading |
|---|---|---|---|---|---|
| 2026-04-24 21:41 | 53.63169 | 10.00362 | 49 ft | 0 kts | 87° |
| 2026-04-24 21:59 | 53.63168 | 10.00339 | 49 ft | 4 kts | 90° |
| 2026-04-24 22:00 | 53.63170 | 10.00294 | 44 ft | 4 kts | 104° |
| 2026-04-24 22:00 | 53.63181 | 10.00256 | 46 ft | 4 kts | 151° |
| 2026-04-24 22:00 | 53.63189 | 10.00250 | 49 ft | 0 kts | 175° |
| 2026-04-24 22:05 | 53.63182 | 10.00251 | 49 ft | 5 kts | 175° |
| 2026-04-24 22:06 | 53.63093 | 10.00262 | 48 ft | 19 kts | 177° |
| 2026-04-24 22:06 | 53.62963 | 10.00148 | 44 ft | 23 kts | 212° |
| 2026-04-24 22:06 | 53.62844 | 10.00083 | 45 ft | 15 kts | 131° |
| 2026-04-24 22:06 | 53.62704 | 10.00189 | 42 ft | 23 kts | 153° |
| 2026-04-24 22:07 | 53.62597 | 10.00258 | 42 ft | 12 kts | 202° |
| 2026-04-24 22:07 | 53.62564 | 10.00192 | 42 ft | 0 kts | 246° |
| 2026-04-24 22:08 | 53.62562 | 10.00183 | 39 ft | 5 kts | 246° |
| 2026-04-24 22:08 | 53.62545 | 10.00067 | 43 ft | 13 kts | 279° |
| 2026-04-24 22:08 | 53.62620 | 9.99954 | 44 ft | 17 kts | 333° |
| 2026-04-24 22:09 | 53.62809 | 9.99787 | 46 ft | 58 kts | 333° |
| 2026-04-24 22:09 | 53.63378 | 9.99291 | 50 ft | 121 kts | 332° |
| 2026-04-24 22:09 | 53.64276 | 9.98513 | 102 ft | 163 kts | 338° |
| 2026-04-24 22:09 | 53.65305 | 9.97705 | 732 ft | 164 kts | 331° |
| 2026-04-24 22:10 | 53.66313 | 9.96857 | 1546 ft | 161 kts | 329° |
| 2026-04-24 22:10 | 53.67329 | 9.95968 | 2173 ft | 173 kts | 330° |
| 2026-04-24 22:10 | 53.68466 | 9.94995 | 2590 ft | 191 kts | 336° |
| 2026-04-24 22:10 | 53.69814 | 9.94680 | 3329 ft | 198 kts | 357° |
| 2026-04-24 22:11 | 53.71228 | 9.94690 | 4171 ft | 200 kts | 357° |
| 2026-04-24 22:11 | 53.72616 | 9.95174 | 4810 ft | 216 kts | 25° |
| 2026-04-24 22:11 | 53.73363 | 9.96315 | 4945 ft | 226 kts | 51° |
| 2026-04-24 22:11 | 53.74026 | 9.98766 | 5003 ft | 233 kts | 67° |
| 2026-04-24 22:12 | 53.74299 | 10.01479 | 5001 ft | 239 kts | 90° |
| 2026-04-24 22:12 | 53.73911 | 10.04299 | 5172 ft | 254 kts | 109° |
| 2026-04-24 22:12 | 53.73027 | 10.07088 | 5535 ft | 282 kts | 120° |
| 2026-04-24 22:12 | 53.72000 | 10.10004 | 6203 ft | 294 kts | 118° |
| 2026-04-24 22:13 | 53.70960 | 10.13108 | 7050 ft | 299 kts | 117° |
| 2026-04-24 22:13 | 53.69905 | 10.16228 | 7887 ft | 305 kts | 122° |
| 2026-04-24 22:13 | 53.68501 | 10.19009 | 8727 ft | 311 kts | 138° |
| 2026-04-24 22:13 | 53.66714 | 10.21082 | 9553 ft | 315 kts | 155° |
| 2026-04-24 22:14 | 53.64651 | 10.22336 | 10333 ft | 318 kts | 167° |
| 2026-04-24 22:14 | 53.62442 | 10.23326 | 10640 ft | 341 kts | 167° |
| 2026-04-24 22:14 | 53.60058 | 10.24392 | 10864 ft | 365 kts | 167° |
| 2026-04-24 22:14 | 53.57761 | 10.25428 | 11291 ft | 376 kts | 167° |
| 2026-04-24 22:15 | 53.55215 | 10.26590 | 11977 ft | 381 kts | 167° |
| 2026-04-24 22:15 | 53.52647 | 10.27771 | 12716 ft | 385 kts | 166° |
| 2026-04-24 22:15 | 53.50044 | 10.28971 | 13459 ft | 389 kts | 166° |
| 2026-04-24 22:15 | 53.47394 | 10.30190 | 14159 ft | 392 kts | 166° |
| 2026-04-24 22:16 | 53.44752 | 10.31400 | 14812 ft | 395 kts | 167° |
| 2026-04-24 22:16 | 53.42091 | 10.32614 | 15468 ft | 398 kts | 167° |